EHDL Airport Information

Runway Information
Runway 02 Length 9678 ft width 164 ft
Elevation 144 ft Threshold 895 ft Heading 18
Runway 20 Length 9678 ft Width 164 ft
Elevation 158 ft Threshold 899 ft Heading 198
Airport Frequencies
Type APP Name RAPCON WES Frequency 123.575 MHZ
Type TWR Name TWR Frequency 122.1 MHZ
Airport Navaids
Type TACAN Name Deelen Frequency 112200 KHZ
Airport Weather Information & NOTAM
ADDS - METARS form results

(1253 UTC 25 May 2019)
Data provider http://aviationweather.gov/metar/data/
 
METAR text: EHDL 251225Z AUTO VRB05KT 9999 BKN040 18/06 Q1017 BLU
Conditions at: EHDL (DEELEN RNLAFB , NL) observed 1225 UTC 25 May 2019
Temperature: 18.0°C (64°F)
Dewpoint: 6.0°C (43°F) [RH = 45%]
Pressure (altimeter): 30.03 inches Hg (1017.0 mb)
Winds: variable direction winds at 6 MPH (5 knots; 2.6 m/s)
Visibility: 6 or more miles (10+ km)
Ceiling: 4000 feet AGL
Clouds: broken clouds at 4000 feet AGL
Weather: no significant weather observed at this time

METAR text: EHDL 251155Z AUTO VRB04KT 9999 FEW036 17/06 Q1017 BLU
Conditions at: EHDL (DEELEN RNLAFB , NL) observed 1155 UTC 25 May 2019
Temperature: 17.0°C (63°F)
Dewpoint: 6.0°C (43°F) [RH = 48%]
Pressure (altimeter): 30.03 inches Hg (1017.0 mb)
Winds: variable direction winds at 5 MPH (4 knots; 2.1 m/s)
Visibility: 6 or more miles (10+ km)
Ceiling: at least 12,000 feet AGL
Clouds: few clouds at 3600 feet AGL
Weather: no significant weather observed at this time